sensor_id;sensor_type;location;lat;lon;timestamp;P1;durP1;ratioP1;P2;durP2;ratioP2
28836;SDS011;50669;50.982;11.022;2022-08-21T00:00:24;19.50;;;16.65;;
28836;SDS011;50669;50.982;11.022;2022-08-21T00:02:55;20.38;;;16.73;;
28836;SDS011;50669;50.982;11.022;2022-08-21T00:05:26;20.90;;;17.30;;
28836;SDS011;50669;50.982;11.022;2022-08-21T00:07:53;18.73;;;16.27;;
28836;SDS011;50669;50.982;11.022;2022-08-21T00:10:22;19.00;;;15.68;;
28836;SDS011;50669;50.982;11.022;2022-08-21T00:12:48;18.88;;;14.70;;
28836;SDS011;50669;50.982;11.022;2022-08-21T00:15:17;20.58;;;16.25;;
28836;SDS011;50669;50.982;11.022;2022-08-21T00:17:46;24.25;;;17.50;;
28836;SDS011;50669;50.982;11.022;2022-08-21T00:20:13;20.40;;;17.20;;
28836;SDS011;50669;50.982;11.022;2022-08-21T00:22:40;20.65;;;16.25;;
28836;SDS011;50669;50.982;11.022;2022-08-21T00:25:08;21.23;;;17.10;;
28836;SDS011;50669;50.982;11.022;2022-08-21T00:27:35;18.90;;;15.10;;
28836;SDS011;50669;50.982;11.022;2022-08-21T00:30:01;20.80;;;16.52;;
28836;SDS011;50669;50.982;11.022;2022-08-21T00:32:30;19.77;;;16.63;;
28836;SDS011;50669;50.982;11.022;2022-08-21T00:34:56;20.50;;;16.52;;
28836;SDS011;50669;50.982;11.022;2022-08-21T00:37:22;19.23;;;16.40;;
28836;SDS011;50669;50.982;11.022;2022-08-21T00:39:47;19.40;;;17.00;;
28836;SDS011;50669;50.982;11.022;2022-08-21T00:42:18;18.60;;;16.17;;
28836;SDS011;50669;50.982;11.022;2022-08-21T00:44:45;21.67;;;17.83;;
28836;SDS011;50669;50.982;11.022;2022-08-21T00:47:12;23.85;;;17.92;;
28836;SDS011;50669;50.982;11.022;2022-08-21T00:49:38;23.00;;;17.85;;
28836;SDS011;50669;50.982;11.022;2022-08-21T00:52:05;21.85;;;18.42;;
28836;SDS011;50669;50.982;11.022;2022-08-21T00:54:34;19.77;;;17.08;;
28836;SDS011;50669;50.982;11.022;2022-08-21T00:57:05;20.52;;;17.00;;
28836;SDS011;50669;50.982;11.022;2022-08-21T00:59:36;20.05;;;17.08;;
28836;SDS011;50669;50.982;11.022;2022-08-21T01:02:03;19.85;;;16.48;;
28836;SDS011;50669;50.982;11.022;2022-08-21T01:04:30;20.83;;;17.13;;
28836;SDS011;50669;50.982;11.022;2022-08-21T01:06:56;19.25;;;16.83;;
28836;SDS011;50669;50.982;11.022;2022-08-21T01:09:21;18.58;;;15.68;;
28836;SDS011;50669;50.982;11.022;2022-08-21T01:11:49;19.13;;;15.85;;
28836;SDS011;50669;50.982;11.022;2022-08-21T01:14:16;19.70;;;16.13;;
28836;SDS011;50669;50.982;11.022;2022-08-21T01:16:44;19.52;;;15.65;;
28836;SDS011;50669;50.982;11.022;2022-08-21T01:19:12;20.40;;;15.48;;
28836;SDS011;50669;50.982;11.022;2022-08-21T01:21:40;17.60;;;15.25;;
28836;SDS011;50669;50.982;11.022;2022-08-21T01:24:06;17.15;;;14.60;;
28836;SDS011;50669;50.982;11.022;2022-08-21T01:26:32;15.25;;;13.65;;
28836;SDS011;50669;50.982;11.022;2022-08-21T01:29:15;17.80;;;14.52;;
28836;SDS011;50669;50.982;11.022;2022-08-21T01:31:53;16.20;;;14.38;;
28836;SDS011;50669;50.982;11.022;2022-08-21T01:34:19;17.00;;;14.40;;
28836;SDS011;50669;50.982;11.022;2022-08-21T01:36:45;18.27;;;14.63;;
28836;SDS011;50669;50.982;11.022;2022-08-21T01:39:14;18.52;;;15.63;;
28836;SDS011;50669;50.982;11.022;2022-08-21T01:41:40;17.27;;;13.98;;
28836;SDS011;50669;50.982;11.022;2022-08-21T01:44:09;15.32;;;13.48;;
28836;SDS011;50669;50.982;11.022;2022-08-21T01:46:39;15.35;;;13.52;;
28836;SDS011;50669;50.982;11.022;2022-08-21T01:49:07;18.13;;;14.35;;
28836;SDS011;50669;50.982;11.022;2022-08-21T01:51:38;14.60;;;13.00;;
28836;SDS011;50669;50.982;11.022;2022-08-21T01:54:03;15.82;;;13.00;;
28836;SDS011;50669;50.982;11.022;2022-08-21T01:56:29;14.55;;;12.80;;
28836;SDS011;50669;50.982;11.022;2022-08-21T01:59:01;18.30;;;13.25;;
28836;SDS011;50669;50.982;11.022;2022-08-21T02:01:29;15.43;;;13.35;;
28836;SDS011;50669;50.982;11.022;2022-08-21T02:03:55;14.57;;;11.32;;
28836;SDS011;50669;50.982;11.022;2022-08-21T02:06:21;14.63;;;12.40;;
28836;SDS011;50669;50.982;11.022;2022-08-21T02:08:46;13.85;;;11.65;;
28836;SDS011;50669;50.982;11.022;2022-08-21T02:11:12;13.80;;;12.25;;
28836;SDS011;50669;50.982;11.022;2022-08-21T02:13:38;12.75;;;11.40;;
28836;SDS011;50669;50.982;11.022;2022-08-21T02:16:04;12.90;;;11.00;;
28836;SDS011;50669;50.982;11.022;2022-08-21T02:18:31;13.05;;;11.68;;
28836;SDS011;50669;50.982;11.022;2022-08-21T02:20:59;15.15;;;12.30;;
28836;SDS011;50669;50.982;11.022;2022-08-21T02:23:25;15.98;;;12.68;;
28836;SDS011;50669;50.982;11.022;2022-08-21T02:25:56;14.15;;;12.15;;
28836;SDS011;50669;50.982;11.022;2022-08-21T02:28:23;14.35;;;12.48;;
28836;SDS011;50669;50.982;11.022;2022-08-21T02:30:49;15.15;;;12.18;;
28836;SDS011;50669;50.982;11.022;2022-08-21T02:33:16;15.15;;;12.70;;
28836;SDS011;50669;50.982;11.022;2022-08-21T02:35:42;13.88;;;12.35;;
28836;SDS011;50669;50.982;11.022;2022-08-21T02:38:11;13.90;;;12.18;;
28836;SDS011;50669;50.982;11.022;2022-08-21T02:40:41;13.75;;;11.52;;
28836;SDS011;50669;50.982;11.022;2022-08-21T02:43:08;12.85;;;11.55;;
28836;SDS011;50669;50.982;11.022;2022-08-21T02:45:35;13.02;;;11.52;;
28836;SDS011;50669;50.982;11.022;2022-08-21T02:48:05;12.65;;;11.10;;
28836;SDS011;50669;50.982;11.022;2022-08-21T02:50:38;12.87;;;11.33;;
28836;SDS011;50669;50.982;11.022;2022-08-21T02:53:13;14.90;;;11.52;;
28836;SDS011;50669;50.982;11.022;2022-08-21T02:55:45;12.95;;;11.50;;
28836;SDS011;50669;50.982;11.022;2022-08-21T02:58:13;13.70;;;11.90;;
28836;SDS011;50669;50.982;11.022;2022-08-21T03:00:41;13.13;;;11.68;;
28836;SDS011;50669;50.982;11.022;2022-08-21T03:03:10;13.25;;;11.63;;
28836;SDS011;50669;50.982;11.022;2022-08-21T03:05:38;14.82;;;11.63;;
28836;SDS011;50669;50.982;11.022;2022-08-21T03:08:04;13.80;;;11.80;;
28836;SDS011;50669;50.982;11.022;2022-08-21T03:10:35;11.95;;;10.48;;
28836;SDS011;50669;50.982;11.022;2022-08-21T03:13:02;12.52;;;11.23;;
28836;SDS011;50669;50.982;11.022;2022-08-21T03:15:28;12.88;;;11.30;;
28836;SDS011;50669;50.982;11.022;2022-08-21T03:17:57;13.35;;;12.02;;
28836;SDS011;50669;50.982;11.022;2022-08-21T03:20:26;14.40;;;12.07;;
28836;SDS011;50669;50.982;11.022;2022-08-21T03:22:53;14.07;;;10.77;;
28836;SDS011;50669;50.982;11.022;2022-08-21T03:25:24;14.27;;;11.45;;
28836;SDS011;50669;50.982;11.022;2022-08-21T03:27:51;14.05;;;12.55;;
28836;SDS011;50669;50.982;11.022;2022-08-21T03:30:18;13.45;;;11.43;;
28836;SDS011;50669;50.982;11.022;2022-08-21T03:32:47;14.05;;;11.40;;
28836;SDS011;50669;50.982;11.022;2022-08-21T03:35:16;12.23;;;10.75;;
28836;SDS011;50669;50.982;11.022;2022-08-21T03:37:45;11.80;;;10.52;;
28836;SDS011;50669;50.982;11.022;2022-08-21T03:40:12;13.82;;;11.48;;
28836;SDS011;50669;50.982;11.022;2022-08-21T03:42:41;13.98;;;11.55;;
28836;SDS011;50669;50.982;11.022;2022-08-21T03:45:07;12.18;;;10.65;;
28836;SDS011;50669;50.982;11.022;2022-08-21T03:47:33;12.60;;;10.02;;
28836;SDS011;50669;50.982;11.022;2022-08-21T03:50:00;13.90;;;10.73;;
28836;SDS011;50669;50.982;11.022;2022-08-21T03:52:27;12.25;;;10.90;;
28836;SDS011;50669;50.982;11.022;2022-08-21T03:54:52;14.73;;;10.98;;
28836;SDS011;50669;50.982;11.022;2022-08-21T03:57:18;14.38;;;12.25;;
28836;SDS011;50669;50.982;11.022;2022-08-21T03:59:47;13.05;;;11.68;;
28836;SDS011;50669;50.982;11.022;2022-08-21T04:02:13;14.68;;;11.68;;
28836;SDS011;50669;50.982;11.022;2022-08-21T04:04:44;14.30;;;12.23;;
28836;SDS011;50669;50.982;11.022;2022-08-21T04:07:10;14.23;;;11.60;;
28836;SDS011;50669;50.982;11.022;2022-08-21T04:09:35;12.20;;;10.90;;
28836;SDS011;50669;50.982;11.022;2022-08-21T04:12:03;12.55;;;10.98;;
28836;SDS011;50669;50.982;11.022;2022-08-21T04:14:31;13.65;;;11.77;;
28836;SDS011;50669;50.982;11.022;2022-08-21T04:16:57;13.25;;;11.70;;
28836;SDS011;50669;50.982;11.022;2022-08-21T04:19:23;14.75;;;11.68;;
28836;SDS011;50669;50.982;11.022;2022-08-21T04:21:51;13.10;;;11.38;;
28836;SDS011;50669;50.982;11.022;2022-08-21T04:24:17;13.65;;;11.73;;
28836;SDS011;50669;50.982;11.022;2022-08-21T04:26:44;12.77;;;10.70;;
28836;SDS011;50669;50.982;11.022;2022-08-21T04:29:09;11.95;;;10.38;;
28836;SDS011;50669;50.982;11.022;2022-08-21T04:31:35;12.10;;;10.68;;
28836;SDS011;50669;50.982;11.022;2022-08-21T04:34:02;16.38;;;10.32;;
28836;SDS011;50669;50.982;11.022;2022-08-21T04:36:32;11.50;;;10.20;;
28836;SDS011;50669;50.982;11.022;2022-08-21T04:39:00;11.18;;;10.05;;
28836;SDS011;50669;50.982;11.022;2022-08-21T04:41:26;11.27;;;10.13;;
28836;SDS011;50669;50.982;11.022;2022-08-21T04:43:53;11.30;;;10.13;;
28836;SDS011;50669;50.982;11.022;2022-08-21T04:46:20;11.70;;;10.02;;
28836;SDS011;50669;50.982;11.022;2022-08-21T04:48:46;12.45;;;10.90;;
28836;SDS011;50669;50.982;11.022;2022-08-21T04:51:13;11.95;;;10.35;;
28836;SDS011;50669;50.982;11.022;2022-08-21T04:53:45;12.90;;;9.98;;
28836;SDS011;50669;50.982;11.022;2022-08-21T04:58:48;10.82;;;9.68;;
28836;SDS011;50669;50.982;11.022;2022-08-21T05:01:18;12.05;;;10.00;;
28836;SDS011;50669;50.982;11.022;2022-08-21T05:03:47;12.63;;;10.77;;
28836;SDS011;50669;50.982;11.022;2022-08-21T05:06:17;13.35;;;10.60;;
28836;SDS011;50669;50.982;11.022;2022-08-21T05:08:44;13.57;;;10.88;;
28836;SDS011;50669;50.982;11.022;2022-08-21T05:11:11;13.23;;;11.55;;
28836;SDS011;50669;50.982;11.022;2022-08-21T05:13:38;13.55;;;11.27;;
28836;SDS011;50669;50.982;11.022;2022-08-21T05:16:06;14.35;;;11.77;;
28836;SDS011;50669;50.982;11.022;2022-08-21T05:18:34;13.95;;;11.23;;
28836;SDS011;50669;50.982;11.022;2022-08-21T05:21:00;13.20;;;11.57;;
28836;SDS011;50669;50.982;11.022;2022-08-21T05:23:26;14.00;;;11.43;;
28836;SDS011;50669;50.982;11.022;2022-08-21T05:25:54;13.27;;;11.38;;
28836;SDS011;50669;50.982;11.022;2022-08-21T05:28:20;14.60;;;12.65;;
28836;SDS011;50669;50.982;11.022;2022-08-21T05:30:46;14.35;;;12.57;;
28836;SDS011;50669;50.982;11.022;2022-08-21T05:33:11;14.20;;;11.98;;
28836;SDS011;50669;50.982;11.022;2022-08-21T05:35:37;15.40;;;12.15;;
28836;SDS011;50669;50.982;11.022;2022-08-21T05:38:04;13.75;;;11.00;;
28836;SDS011;50669;50.982;11.022;2022-08-21T05:40:31;12.05;;;10.18;;
28836;SDS011;50669;50.982;11.022;2022-08-21T05:42:57;13.02;;;11.23;;
28836;SDS011;50669;50.982;11.022;2022-08-21T05:45:26;14.07;;;11.00;;
28836;SDS011;50669;50.982;11.022;2022-08-21T05:47:53;11.57;;;10.40;;
28836;SDS011;50669;50.982;11.022;2022-08-21T05:50:19;16.67;;;10.90;;
28836;SDS011;50669;50.982;11.022;2022-08-21T05:52:45;13.90;;;11.10;;
28836;SDS011;50669;50.982;11.022;2022-08-21T05:55:11;11.55;;;10.02;;
28836;SDS011;50669;50.982;11.022;2022-08-21T05:57:39;10.85;;;9.70;;
28836;SDS011;50669;50.982;11.022;2022-08-21T06:00:08;11.82;;;10.10;;
28836;SDS011;50669;50.982;11.022;2022-08-21T06:02:40;11.35;;;10.15;;
28836;SDS011;50669;50.982;11.022;2022-08-21T06:05:06;11.30;;;9.68;;
28836;SDS011;50669;50.982;11.022;2022-08-21T06:07:32;11.32;;;9.32;;
28836;SDS011;50669;50.982;11.022;2022-08-21T06:09:57;11.18;;;9.98;;
28836;SDS011;50669;50.982;11.022;2022-08-21T06:12:23;11.02;;;9.68;;
28836;SDS011;50669;50.982;11.022;2022-08-21T06:14:49;10.05;;;8.68;;
28836;SDS011;50669;50.982;11.022;2022-08-21T06:17:20;11.55;;;9.90;;
28836;SDS011;50669;50.982;11.022;2022-08-21T06:19:50;11.10;;;9.90;;
28836;SDS011;50669;50.982;11.022;2022-08-21T06:22:17;9.73;;;8.80;;
28836;SDS011;50669;50.982;11.022;2022-08-21T06:24:43;11.77;;;10.40;;
28836;SDS011;50669;50.982;11.022;2022-08-21T06:27:09;10.70;;;9.52;;
28836;SDS011;50669;50.982;11.022;2022-08-21T06:29:35;11.38;;;9.95;;
28836;SDS011;50669;50.982;11.022;2022-08-21T06:32:03;10.77;;;9.68;;
28836;SDS011;50669;50.982;11.022;2022-08-21T06:34:31;10.50;;;9.40;;
28836;SDS011;50669;50.982;11.022;2022-08-21T06:36:57;9.90;;;8.90;;
28836;SDS011;50669;50.982;11.022;2022-08-21T06:39:23;10.52;;;9.48;;
28836;SDS011;50669;50.982;11.022;2022-08-21T06:41:48;10.20;;;9.20;;
28836;SDS011;50669;50.982;11.022;2022-08-21T06:44:15;10.07;;;8.95;;
28836;SDS011;50669;50.982;11.022;2022-08-21T06:46:42;10.23;;;9.23;;
28836;SDS011;50669;50.982;11.022;2022-08-21T06:49:08;10.32;;;9.32;;
28836;SDS011;50669;50.982;11.022;2022-08-21T06:51:33;11.30;;;9.32;;
28836;SDS011;50669;50.982;11.022;2022-08-21T06:53:59;10.60;;;9.45;;
28836;SDS011;50669;50.982;11.022;2022-08-21T06:56:25;10.57;;;9.50;;
28836;SDS011;50669;50.982;11.022;2022-08-21T06:58:50;8.82;;;7.93;;
28836;SDS011;50669;50.982;11.022;2022-08-21T07:01:17;9.43;;;8.52;;
28836;SDS011;50669;50.982;11.022;2022-08-21T07:03:50;9.18;;;8.27;;
28836;SDS011;50669;50.982;11.022;2022-08-21T07:06:16;9.55;;;8.60;;
28836;SDS011;50669;50.982;11.022;2022-08-21T07:08:42;8.75;;;7.88;;
28836;SDS011;50669;50.982;11.022;2022-08-21T07:11:14;8.05;;;7.30;;
28836;SDS011;50669;50.982;11.022;2022-08-21T07:13:48;8.05;;;7.25;;
28836;SDS011;50669;50.982;11.022;2022-08-21T07:16:20;10.43;;;8.80;;
28836;SDS011;50669;50.982;11.022;2022-08-21T07:18:49;9.90;;;8.70;;
28836;SDS011;50669;50.982;11.022;2022-08-21T07:21:15;11.02;;;8.07;;
28836;SDS011;50669;50.982;11.022;2022-08-21T07:23:42;9.73;;;8.77;;
28836;SDS011;50669;50.982;11.022;2022-08-21T07:26:11;10.07;;;8.50;;
28836;SDS011;50669;50.982;11.022;2022-08-21T07:28:37;10.65;;;8.93;;
28836;SDS011;50669;50.982;11.022;2022-08-21T07:31:04;9.23;;;8.32;;
28836;SDS011;50669;50.982;11.022;2022-08-21T07:33:31;10.82;;;9.40;;
28836;SDS011;50669;50.982;11.022;2022-08-21T07:35:58;10.57;;;9.48;;
28836;SDS011;50669;50.982;11.022;2022-08-21T07:38:27;12.73;;;9.77;;
28836;SDS011;50669;50.982;11.022;2022-08-21T07:40:53;12.93;;;10.88;;
28836;SDS011;50669;50.982;11.022;2022-08-21T07:43:24;12.10;;;10.75;;
28836;SDS011;50669;50.982;11.022;2022-08-21T07:45:50;12.95;;;11.57;;
28836;SDS011;50669;50.982;11.022;2022-08-21T07:48:18;14.05;;;12.55;;
28836;SDS011;50669;50.982;11.022;2022-08-21T07:50:43;13.75;;;12.13;;
28836;SDS011;50669;50.982;11.022;2022-08-21T07:53:09;11.15;;;10.00;;
28836;SDS011;50669;50.982;11.022;2022-08-21T07:55:35;10.93;;;9.77;;
28836;SDS011;50669;50.982;11.022;2022-08-21T07:58:00;11.85;;;9.55;;
28836;SDS011;50669;50.982;11.022;2022-08-21T08:00:27;11.23;;;10.10;;
28836;SDS011;50669;50.982;11.022;2022-08-21T08:02:54;12.48;;;11.18;;
28836;SDS011;50669;50.982;11.022;2022-08-21T08:05:21;12.02;;;10.00;;
28836;SDS011;50669;50.982;11.022;2022-08-21T08:07:49;12.05;;;10.45;;
28836;SDS011;50669;50.982;11.022;2022-08-21T08:10:17;12.68;;;11.38;;
28836;SDS011;50669;50.982;11.022;2022-08-21T08:12:46;11.77;;;10.05;;
28836;SDS011;50669;50.982;11.022;2022-08-21T08:15:14;10.65;;;9.38;;
28836;SDS011;50669;50.982;11.022;2022-08-21T08:17:42;13.18;;;9.52;;
28836;SDS011;50669;50.982;11.022;2022-08-21T08:20:09;12.40;;;11.10;;
28836;SDS011;50669;50.982;11.022;2022-08-21T08:22:41;10.18;;;9.10;;
28836;SDS011;50669;50.982;11.022;2022-08-21T08:25:10;12.05;;;10.77;;
28836;SDS011;50669;50.982;11.022;2022-08-21T08:27:37;10.52;;;8.98;;
28836;SDS011;50669;50.982;11.022;2022-08-21T08:30:04;9.75;;;8.70;;
28836;SDS011;50669;50.982;11.022;2022-08-21T08:32:31;11.18;;;8.85;;
28836;SDS011;50669;50.982;11.022;2022-08-21T08:34:59;8.05;;;7.22;;
28836;SDS011;50669;50.982;11.022;2022-08-21T08:37:25;9.57;;;8.57;;
28836;SDS011;50669;50.982;11.022;2022-08-21T08:39:51;15.55;;;10.55;;
28836;SDS011;50669;50.982;11.022;2022-08-21T08:45:08;9.93;;;7.47;;
28836;SDS011;50669;50.982;11.022;2022-08-21T08:47:38;10.30;;;7.57;;
28836;SDS011;50669;50.982;11.022;2022-08-21T08:50:17;11.73;;;6.97;;
28836;SDS011;50669;50.982;11.022;2022-08-21T08:52:47;9.30;;;8.02;;
28836;SDS011;50669;50.982;11.022;2022-08-21T08:55:26;12.95;;;10.38;;
28836;SDS011;50669;50.982;11.022;2022-08-21T08:57:56;11.45;;;10.30;;
28836;SDS011;50669;50.982;11.022;2022-08-21T09:00:23;11.98;;;9.75;;
28836;SDS011;50669;50.982;11.022;2022-08-21T09:02:52;14.48;;;9.85;;
28836;SDS011;50669;50.982;11.022;2022-08-21T09:16:36;9.48;;;8.55;;
28836;SDS011;50669;50.982;11.022;2022-08-21T09:22:16;13.15;;;10.15;;
28836;SDS011;50669;50.982;11.022;2022-08-21T09:27:27;10.38;;;8.73;;
28836;SDS011;50669;50.982;11.022;2022-08-21T09:29:56;9.48;;;8.07;;
28836;SDS011;50669;50.982;11.022;2022-08-21T09:32:27;11.55;;;9.52;;
28836;SDS011;50669;50.982;11.022;2022-08-21T09:35:16;8.45;;;6.95;;
28836;SDS011;50669;50.982;11.022;2022-08-21T09:43:01;8.30;;;7.47;;
28836;SDS011;50669;50.982;11.022;2022-08-21T09:45:30;10.23;;;7.68;;
28836;SDS011;50669;50.982;11.022;2022-08-21T09:50:46;7.95;;;7.15;;
28836;SDS011;50669;50.982;11.022;2022-08-21T09:53:18;9.77;;;8.40;;
28836;SDS011;50669;50.982;11.022;2022-08-21T09:55:53;8.77;;;7.28;;
28836;SDS011;50669;50.982;11.022;2022-08-21T09:58:41;8.38;;;7.35;;
28836;SDS011;50669;50.982;11.022;2022-08-21T10:01:18;11.32;;;8.00;;
28836;SDS011;50669;50.982;11.022;2022-08-21T10:04:00;9.77;;;7.55;;
28836;SDS011;50669;50.982;11.022;2022-08-21T10:06:34;9.73;;;7.82;;
28836;SDS011;50669;50.982;11.022;2022-08-21T10:09:08;9.00;;;7.90;;
28836;SDS011;50669;50.982;11.022;2022-08-21T10:11:44;8.18;;;7.20;;
28836;SDS011;50669;50.982;11.022;2022-08-21T10:14:27;8.70;;;6.63;;
28836;SDS011;50669;50.982;11.022;2022-08-21T10:17:24;7.90;;;6.75;;
28836;SDS011;50669;50.982;11.022;2022-08-21T10:22:58;6.43;;;5.53;;
28836;SDS011;50669;50.982;11.022;2022-08-21T10:28:11;5.72;;;5.22;;
28836;SDS011;50669;50.982;11.022;2022-08-21T10:30:59;5.60;;;5.00;;
28836;SDS011;50669;50.982;11.022;2022-08-21T10:33:33;8.65;;;5.30;;
28836;SDS011;50669;50.982;11.022;2022-08-21T10:41:43;6.50;;;4.80;;
28836;SDS011;50669;50.982;11.022;2022-08-21T10:46:47;6.60;;;5.75;;
28836;SDS011;50669;50.982;11.022;2022-08-21T10:49:23;9.82;;;6.18;;
28836;SDS011;50669;50.982;11.022;2022-08-21T10:55:00;5.68;;;4.88;;
28836;SDS011;50669;50.982;11.022;2022-08-21T10:57:41;5.05;;;4.65;;
28836;SDS011;50669;50.982;11.022;2022-08-21T11:00:14;5.38;;;4.72;;
28836;SDS011;50669;50.982;11.022;2022-08-21T11:05:29;7.45;;;5.60;;
28836;SDS011;50669;50.982;11.022;2022-08-21T11:08:07;5.18;;;4.38;;
28836;SDS011;50669;50.982;11.022;2022-08-21T11:13:14;6.03;;;4.60;;
28836;SDS011;50669;50.982;11.022;2022-08-21T11:15:52;6.40;;;5.15;;
28836;SDS011;50669;50.982;11.022;2022-08-21T11:18:36;5.85;;;4.30;;
28836;SDS011;50669;50.982;11.022;2022-08-21T11:26:59;5.55;;;3.90;;
28836;SDS011;50669;50.982;11.022;2022-08-21T11:29:28;6.68;;;4.32;;
28836;SDS011;50669;50.982;11.022;2022-08-21T11:35:03;5.35;;;4.35;;
28836;SDS011;50669;50.982;11.022;2022-08-21T11:43:02;4.60;;;3.13;;
28836;SDS011;50669;50.982;11.022;2022-08-21T11:45:32;4.90;;;3.42;;
28836;SDS011;50669;50.982;11.022;2022-08-21T11:48:31;3.95;;;3.55;;
28836;SDS011;50669;50.982;11.022;2022-08-21T11:51:00;3.60;;;3.13;;
28836;SDS011;50669;50.982;11.022;2022-08-21T11:53:46;4.20;;;2.92;;
28836;SDS011;50669;50.982;11.022;2022-08-21T11:59:19;3.30;;;2.78;;
28836;SDS011;50669;50.982;11.022;2022-08-21T12:01:48;4.43;;;2.75;;
28836;SDS011;50669;50.982;11.022;2022-08-21T12:06:52;4.07;;;3.13;;
28836;SDS011;50669;50.982;11.022;2022-08-21T12:12:00;4.85;;;2.95;;
28836;SDS011;50669;50.982;11.022;2022-08-21T12:14:48;3.35;;;3.05;;
28836;SDS011;50669;50.982;11.022;2022-08-21T12:17:19;3.63;;;2.85;;
28836;SDS011;50669;50.982;11.022;2022-08-21T12:20:00;4.53;;;3.05;;
28836;SDS011;50669;50.982;11.022;2022-08-21T12:22:47;4.10;;;2.80;;
28836;SDS011;50669;50.982;11.022;2022-08-21T12:25:18;2.90;;;2.58;;
28836;SDS011;50669;50.982;11.022;2022-08-21T12:28:02;2.67;;;2.42;;
28836;SDS011;50669;50.982;11.022;2022-08-21T12:30:34;3.50;;;2.92;;
28836;SDS011;50669;50.982;11.022;2022-08-21T12:33:03;3.75;;;2.50;;
28836;SDS011;50669;50.982;11.022;2022-08-21T12:35:50;3.05;;;2.70;;
28836;SDS011;50669;50.982;11.022;2022-08-21T12:38:56;3.63;;;2.70;;
28836;SDS011;50669;50.982;11.022;2022-08-21T12:41:30;3.90;;;2.65;;
28836;SDS011;50669;50.982;11.022;2022-08-21T12:44:21;3.95;;;2.78;;
28836;SDS011;50669;50.982;11.022;2022-08-21T12:46:57;3.13;;;2.38;;
28836;SDS011;50669;50.982;11.022;2022-08-21T12:49:39;2.55;;;2.35;;
28836;SDS011;50669;50.982;11.022;2022-08-21T12:52:20;3.47;;;2.50;;
28836;SDS011;50669;50.982;11.022;2022-08-21T12:54:54;2.97;;;2.60;;
28836;SDS011;50669;50.982;11.022;2022-08-21T12:57:21;5.03;;;2.75;;
28836;SDS011;50669;50.982;11.022;2022-08-21T13:00:04;3.53;;;2.78;;
28836;SDS011;50669;50.982;11.022;2022-08-21T13:02:37;4.97;;;2.90;;
28836;SDS011;50669;50.982;11.022;2022-08-21T13:05:12;3.38;;;2.70;;
28836;SDS011;50669;50.982;11.022;2022-08-21T13:07:42;3.42;;;2.70;;
28836;SDS011;50669;50.982;11.022;2022-08-21T13:10:32;3.90;;;2.55;;
28836;SDS011;50669;50.982;11.022;2022-08-21T13:12:57;3.10;;;2.63;;
28836;SDS011;50669;50.982;11.022;2022-08-21T13:15:30;3.30;;;2.75;;
28836;SDS011;50669;50.982;11.022;2022-08-21T13:17:59;7.45;;;3.25;;
28836;SDS011;50669;50.982;11.022;2022-08-21T13:22:58;4.82;;;2.53;;
28836;SDS011;50669;50.982;11.022;2022-08-21T13:25:26;5.07;;;3.03;;
28836;SDS011;50669;50.982;11.022;2022-08-21T13:27:59;3.10;;;2.67;;
28836;SDS011;50669;50.982;11.022;2022-08-21T13:30:31;5.80;;;2.67;;
28836;SDS011;50669;50.982;11.022;2022-08-21T13:32:58;6.22;;;2.95;;
28836;SDS011;50669;50.982;11.022;2022-08-21T13:35:36;4.93;;;2.55;;
28836;SDS011;50669;50.982;11.022;2022-08-21T13:38:29;3.35;;;3.05;;
28836;SDS011;50669;50.982;11.022;2022-08-21T13:43:33;3.72;;;2.60;;
28836;SDS011;50669;50.982;11.022;2022-08-21T13:46:01;3.83;;;2.45;;
28836;SDS011;50669;50.982;11.022;2022-08-21T13:48:35;4.18;;;2.30;;
28836;SDS011;50669;50.982;11.022;2022-08-21T13:51:03;4.47;;;2.65;;
28836;SDS011;50669;50.982;11.022;2022-08-21T13:55:57;5.10;;;2.10;;
28836;SDS011;50669;50.982;11.022;2022-08-21T13:58:27;3.80;;;2.38;;
28836;SDS011;50669;50.982;11.022;2022-08-21T14:00:55;4.68;;;2.85;;
28836;SDS011;50669;50.982;11.022;2022-08-21T14:06:02;3.70;;;2.80;;
28836;SDS011;50669;50.982;11.022;2022-08-21T14:08:46;2.92;;;2.30;;
28836;SDS011;50669;50.982;11.022;2022-08-21T14:11:22;4.38;;;2.10;;
28836;SDS011;50669;50.982;11.022;2022-08-21T14:13:55;3.83;;;2.60;;
28836;SDS011;50669;50.982;11.022;2022-08-21T14:16:25;3.50;;;2.35;;
28836;SDS011;50669;50.982;11.022;2022-08-21T14:21:33;3.67;;;2.70;;
28836;SDS011;50669;50.982;11.022;2022-08-21T14:26:42;6.68;;;2.80;;
28836;SDS011;50669;50.982;11.022;2022-08-21T14:29:20;2.85;;;2.53;;
28836;SDS011;50669;50.982;11.022;2022-08-21T14:31:50;6.65;;;2.72;;
28836;SDS011;50669;50.982;11.022;2022-08-21T14:34:21;4.75;;;2.33;;
28836;SDS011;50669;50.982;11.022;2022-08-21T14:36:50;2.47;;;2.15;;
28836;SDS011;50669;50.982;11.022;2022-08-21T14:39:16;5.18;;;2.30;;
28836;SDS011;50669;50.982;11.022;2022-08-21T14:41:44;4.43;;;2.35;;
28836;SDS011;50669;50.982;11.022;2022-08-21T14:44:13;3.58;;;2.33;;
28836;SDS011;50669;50.982;11.022;2022-08-21T14:46:42;2.70;;;2.35;;
28836;SDS011;50669;50.982;11.022;2022-08-21T14:49:08;4.60;;;2.30;;
28836;SDS011;50669;50.982;11.022;2022-08-21T14:51:36;7.32;;;2.60;;
28836;SDS011;50669;50.982;11.022;2022-08-21T14:54:05;4.18;;;2.88;;
28836;SDS011;50669;50.982;11.022;2022-08-21T14:56:31;4.72;;;2.22;;
28836;SDS011;50669;50.982;11.022;2022-08-21T14:59:06;5.32;;;2.85;;
28836;SDS011;50669;50.982;11.022;2022-08-21T15:01:36;6.40;;;3.03;;
28836;SDS011;50669;50.982;11.022;2022-08-21T15:04:06;4.40;;;2.45;;
28836;SDS011;50669;50.982;11.022;2022-08-21T15:06:35;6.25;;;2.80;;
28836;SDS011;50669;50.982;11.022;2022-08-21T15:09:00;3.15;;;2.20;;
28836;SDS011;50669;50.982;11.022;2022-08-21T15:11:30;4.40;;;2.20;;
28836;SDS011;50669;50.982;11.022;2022-08-21T15:14:03;4.00;;;2.60;;
28836;SDS011;50669;50.982;11.022;2022-08-21T15:16:35;7.65;;;2.35;;
28836;SDS011;50669;50.982;11.022;2022-08-21T15:19:03;2.70;;;2.20;;
28836;SDS011;50669;50.982;11.022;2022-08-21T15:21:28;4.38;;;2.47;;
28836;SDS011;50669;50.982;11.022;2022-08-21T15:23:56;3.55;;;2.50;;
28836;SDS011;50669;50.982;11.022;2022-08-21T15:26:22;4.25;;;2.40;;
28836;SDS011;50669;50.982;11.022;2022-08-21T15:28:50;4.25;;;2.45;;
28836;SDS011;50669;50.982;11.022;2022-08-21T15:31:15;5.15;;;2.10;;
28836;SDS011;50669;50.982;11.022;2022-08-21T15:33:41;4.30;;;2.30;;
28836;SDS011;50669;50.982;11.022;2022-08-21T15:36:09;4.35;;;2.30;;
28836;SDS011;50669;50.982;11.022;2022-08-21T15:38:37;3.70;;;2.10;;
28836;SDS011;50669;50.982;11.022;2022-08-21T15:41:03;3.05;;;2.35;;
28836;SDS011;50669;50.982;11.022;2022-08-21T15:43:33;3.75;;;2.50;;
28836;SDS011;50669;50.982;11.022;2022-08-21T15:46:05;6.32;;;2.65;;
28836;SDS011;50669;50.982;11.022;2022-08-21T15:48:37;7.32;;;2.83;;
28836;SDS011;50669;50.982;11.022;2022-08-21T15:51:05;4.03;;;2.17;;
28836;SDS011;50669;50.982;11.022;2022-08-21T15:53:31;3.70;;;2.67;;
28836;SDS011;50669;50.982;11.022;2022-08-21T15:56:01;3.83;;;2.28;;
28836;SDS011;50669;50.982;11.022;2022-08-21T15:58:32;5.00;;;2.63;;
28836;SDS011;50669;50.982;11.022;2022-08-21T16:01:05;5.10;;;2.40;;
28836;SDS011;50669;50.982;11.022;2022-08-21T16:03:31;4.97;;;2.65;;
28836;SDS011;50669;50.982;11.022;2022-08-21T16:05:57;3.85;;;2.22;;